Map

Track Data

SID SEASON NUMBER BASIN SUBBASIN NAME ISO_TIME NATURE LAT LON WMO_WIND WMO_PRES WMO_AGENCY TRACK_TYPE DIST2LAND LANDFALL IFLAG USA_AGENCY USA_ATCF_ID USA_LAT USA_LON USA_RECORD USA_STATUS USA_WIND USA_PRES USA_SSHS USA_R34_NE USA_R34_SE USA_R34_SW USA_R34_NW USA_R50_NE USA_R50_SE USA_R50_SW USA_R50_NW USA_R64_NE USA_R64_SE USA_R64_SW USA_R64_NW USA_POCI USA_ROCI USA_RMW USA_EYE TOKYO_LAT TOKYO_LON TOKYO_GRADE TOKYO_WIND TOKYO_PRES TOKYO_R50_DIR TOKYO_R50_LONG TOKYO_R50_SHORT TOKYO_R30_DIR TOKYO_R30_LONG TOKYO_R30_SHORT TOKYO_LAND CMA_LAT CMA_LON CMA_CAT CMA_WIND CMA_PRES HKO_LAT HKO_LON HKO_CAT HKO_WIND HKO_PRES NEWDELHI_LAT NEWDELHI_LON NEWDELHI_GRADE NEWDELHI_WIND NEWDELHI_PRES NEWDELHI_CI NEWDELHI_DP NEWDELHI_POCI REUNION_LAT REUNION_LON REUNION_TYPE REUNION_WIND REUNION_PRES REUNION_TNUM REUNION_CI REUNION_RMW REUNION_R34_NE REUNION_R34_SE REUNION_R34_SW REUNION_R34_NW REUNION_R50_NE REUNION_R50_SE REUNION_R50_SW REUNION_R50_NW REUNION_R64_NE REUNION_R64_SE REUNION_R64_SW REUNION_R64_NW BOM_LAT BOM_LON BOM_TYPE BOM_WIND BOM_PRES BOM_TNUM BOM_CI BOM_RMW BOM_R34_NE BOM_R34_SE BOM_R34_SW BOM_R34_NW BOM_R50_NE BOM_R50_SE BOM_R50_SW BOM_R50_NW BOM_R64_NE BOM_R64_SE BOM_R64_SW BOM_R64_NW BOM_ROCI BOM_POCI BOM_EYE BOM_POS_METHOD BOM_PRES_METHOD NADI_LAT NADI_LON NADI_CAT NADI_WIND NADI_PRES WELLINGTON_LAT WELLINGTON_LON WELLINGTON_WIND WELLINGTON_PRES DS824_LAT DS824_LON DS824_STAGE DS824_WIND DS824_PRES TD9636_LAT TD9636_LON TD9636_STAGE TD9636_WIND TD9636_PRES TD9635_LAT TD9635_LON TD9635_WIND TD9635_PRES TD9635_ROCI NEUMANN_LAT NEUMANN_LON NEUMANN_CLASS NEUMANN_WIND NEUMANN_PRES MLC_LAT MLC_LON MLC_CLASS MLC_WIND MLC_PRES USA_GUST BOM_GUST BOM_GUST_PER REUNION_GUST REUNION_GUST_PER USA_SEAHGT USA_SEARAD_NE USA_SEARAD_SE USA_SEARAD_SW USA_SEARAD_NW STORM_SPEED STORM_DIR
1993096S11101 1993 25 SI WA MONTY 1993-04-06 00:00:00 NR -10.5000 101.000 20 1006 bom main 620 612 ______O_______ -1 -10.5000 101.000 20 20 1006 1.00000 80 3 5 4 110
1993096S11101 1993 25 SI WA MONTY 1993-04-06 03:00:00 NR -10.5681 101.189 main 612 596 ______P_______ -1 -10.5681 101.189 20 4 110
1993096S11101 1993 25 SI WA MONTY 1993-04-06 06:00:00 NR -10.6356 101.379 main 596 589 ______P_______ -1 -10.6356 101.379 20 4 110
1993096S11101 1993 25 SI WA MONTY 1993-04-06 09:00:00 NR -10.7020 101.568 main 589 582 ______P_______ -1 -10.7020 101.568 20 4 109
1993096S11101 1993 25 SI WA MONTY 1993-04-06 12:00:00 NR -10.7668 101.756 main 583 576 ______P_______ -1 -10.7668 101.756 20 4 109
1993096S11101 1993 25 SI WA MONTY 1993-04-06 15:00:00 NR -10.8295 101.944 main 576 569 ______P_______ -1 -10.8295 101.944 20 4 108
1993096S11101 1993 25 SI WA MONTY 1993-04-06 18:00:00 NR -10.8896 102.131 main 571 559 ______P_______ -1 -10.8896 102.131 20 4 108
1993096S11101 1993 25 SI WA MONTY 1993-04-06 21:00:00 NR -10.9466 102.316 main 559 556 ______P_______ -1 -10.9466 102.316 20 4 107
1993096S11101 1993 25 SI WA MONTY 1993-04-07 00:00:00 NR -11.0000 102.500 20 1005 bom main 556 544 ______O_______ -1 -11.0000 102.500 20 20 1005 1.00000 80 3 5 4 106
1993096S11101 1993 25 SI WA MONTY 1993-04-07 03:00:00 NR -11.0499 102.683 main 544 544 ______P_______ -1 -11.0499 102.683 20 4 105
1993096S11101 1993 25 SI WA MONTY 1993-04-07 06:00:00 NR -11.0982 102.864 main 544 538 ______P_______ -1 -11.0982 102.864 20 4 105
1993096S11101 1993 25 SI WA MONTY 1993-04-07 09:00:00 NR -11.1476 103.047 main 538 538 ______P_______ -1 -11.1476 103.047 20 4 106
1993096S11101 1993 25 SI WA MONTY 1993-04-07 12:00:00 NR -11.2007 103.230 main 539 531 ______P_______ -1 -11.2007 103.230 20 4 107
1993096S11101 1993 25 SI WA MONTY 1993-04-07 15:00:00 NR -11.2599 103.416 main 541 533 ______P_______ -1 -11.2599 103.416 20 4 109
1993096S11101 1993 25 SI WA MONTY 1993-04-07 18:00:00 NR -11.3278 103.606 main 533 527 ______P_______ -1 -11.3278 103.606 20 4 111
1993096S11101 1993 25 SI WA MONTY 1993-04-07 21:00:00 NR -11.4070 103.800 main 531 525 ______P_______ -1 -11.4070 103.800 20 4 114
1993096S11101 1993 25 SI WA MONTY 1993-04-08 00:00:00 NR -11.5000 104.000 20 1005 bom main 529 518 ______O_______ -1 -11.5000 104.000 20 20 1005 1.00000 80 3 5 5 110
1993096S11101 1993 25 SI WA MONTY 1993-04-08 03:00:00 NR -11.5642 104.245 main 528 514 ______P_______ -1 -11.5642 104.245 20 5 106
1993096S11101 1993 25 SI WA MONTY 1993-04-08 06:00:00 NR -11.6401 104.495 main 514 514 ______P_______ -1 -11.6401 104.495 20 5 110
1993096S11101 1993 25 SI WA MONTY 1993-04-08 09:00:00 NR -11.7397 104.739 main 516 512 ______P_______ -1 -11.7397 104.739 20 5 117
1993096S11101 1993 25 SI WA MONTY 1993-04-08 12:00:00 NR -11.8749 104.962 main 526 523 ______P_______ -1 -11.8749 104.962 20 5 128
1993096S11101 1993 25 SI WA MONTY 1993-04-08 15:00:00 NR -12.0577 105.154 main 542 542 ______P_______ -1 -12.0577 105.154 20 5 173
1993096S11101 1993 25 SI WA MONTY 1993-04-08 18:00:00 TS -12.3667 105.033 20 1004 bom main 580 580 O_____O_____O_ jtwc_sh SH251993 -12.5000 104.500 20 -1 -12.3000 105.300 20 20 1004 1.00000 80 3 5 -12.5000 104.500 TC 20 6 192
1993096S11101 1993 25 SI WA MONTY 1993-04-08 21:00:00 TS -12.6263 105.032 20 1003 bom main 602 602 P_____O_____P_ SH251993 -12.6525 104.665 20 -1 -12.6000 105.400 20 20 1003 1.00000 80 3 5 -12.6525 104.665 TC 20 5 176
1993096S11101 1993 25 SI WA MONTY 1993-04-09 00:00:00 TS -12.8400 105.080 25 1002 bom main 621 621 O_____O_____O_ jtwc_sh SH251993 -12.8000 104.800 20 -1 -12.9000 105.500 20 25 1002 1.50000 80 3 5 -12.8000 104.800 TC 20 4 161
1993096S11101 1993 25 SI WA MONTY 1993-04-09 03:00:00 TS -12.9950 105.162 25 1001 bom main 640 640 P_____O_____P_ SH251993 -12.9425 104.893 20 -1 -13.1000 105.700 20 25 1001 1.50000 80 3 5 -12.9425 104.893 TC 20 4 151
1993096S11101 1993 25 SI WA MONTY 1993-04-09 06:00:00 TS -13.1667 105.267 25 1000 bom main 660 660 O_____O_____O_ jtwc_sh SH251993 -13.1000 105.000 20 -1 -13.3000 105.800 20 25 1000 2.00000 80 3 5 -13.1000 105.000 TC 20 4 145
1993096S11101 1993 25 SI WA MONTY 1993-04-09 09:00:00 TS -13.3517 105.423 30 999 bom main 680 679 P_____O_____P_ SH251993 -13.2775 105.185 20 -1 -13.5000 105.900 20 30 999 2.50000 80 3 5 -13.2775 105.185 TC 20 5 142
1993096S11101 1993 25 SI WA MONTY 1993-04-09 12:00:00 TS -13.5333 105.567 30 998 bom main 688 688 O_____O_____O_ jtwc_sh SH251993 -13.5000 105.400 20 -1 -13.6000 105.900 20 30 998 2.50000 80 3 5 -13.5000 105.400 TC 20 5 145
1993096S11101 1993 25 SI WA MONTY 1993-04-09 15:00:00 TS -13.7950 105.743 30 997 bom main 720 717 P_____O_____P_ SH251993 -13.7925 105.615 20 -1 -13.8000 106.000 20 30 997 2.50000 80 3 5 -13.7925 105.615 TC 20 6 151
1993096S11101 1993 25 SI WA MONTY 1993-04-09 18:00:00 TS -14.0667 105.867 35 995 bom main 746 746 O_____O_____O_ jtwc_sh SH251993 -14.1000 105.800 20 -1 -14.0000 106.000 30 35 995 3.00000 107 3 5 -14.1000 105.800 TC 20 6 156
1993096S11101 1993 25 SI WA MONTY 1993-04-09 21:00:00 TS -14.3433 105.992 35 995 bom main 764 764 P_____O_____P_ SH251993 -14.3650 105.938 22 -1 -14.3000 106.100 30 35 995 3.00000 107 3 5 -14.3650 105.938 TC 22 6 161
1993096S11101 1993 25 SI WA MONTY 1993-04-10 00:00:00 TS -14.6333 106.067 35 995 bom main 794 794 O_____O_____O_ jtwc_sh SH251993 -14.6000 106.000 25 -1 -14.7000 106.200 30 35 995 3.00000 161 3 5 -14.6000 106.000 TC 25 5 184
1993096S11101 1993 25 SI WA MONTY 1993-04-10 03:00:00 TS -14.8667 105.958 40 992 bom main 829 829 P_____O_____P_ SH251993 -14.8000 105.988 25 -1 -15.0000 105.900 30 40 992 3.00000 188 3 5 -14.8000 105.988 TC 25 6 212
1993096S11101 1993 25 SI WA MONTY 1993-04-10 06:00:00 TS -15.1000 105.767 40 992 bom main 856 856 O_____O_____O_ jtwc_sh SH251993 -15.0000 105.900 25 -1 -15.3000 105.500 30 40 992 3.00000 215 3 5 -15.0000 105.900 TC 25 6 210
1993096S11101 1993 25 SI WA MONTY 1993-04-10 09:00:00 TS -15.3567 105.667 40 992 bom main 892 892 P_____O_____P_ SH251993 -15.2350 105.750 27 -1 -15.6000 105.500 30 40 992 3.00000 215 3 5 -15.2350 105.750 TC 27 6 200
1993096S11101 1993 25 SI WA MONTY 1993-04-10 12:00:00 TS -15.6333 105.567 40 995 bom main 916 916 O_____O_____O_ jtwc_sh SH251993 -15.5000 105.600 30 -1 -15.9000 105.500 30 40 995 3.00000 215 3 5 -15.5000 105.600 TC 30 6 195
1993096S11101 1993 25 SI WA MONTY 1993-04-10 15:00:00 TS -15.9283 105.508 50 995 bom main 951 951 P_____O_____P_ SH251993 -15.7925 105.513 35 0 -16.2000 105.500 30 50 995 3.50000 215 3 5 -15.7925 105.513 TC 35 6 184
1993096S11101 1993 25 SI WA MONTY 1993-04-10 18:00:00 TS -16.2000 105.533 50 995 bom main 984 984 O_____O_____O_ jtwc_sh SH251993 -16.1000 105.500 40 0 -16.4000 105.600 30 50 995 3.50000 215 3 5 -16.1000 105.500 TC 40 6 174
1993096S11101 1993 25 SI WA MONTY 1993-04-10 21:00:00 TS -16.4900 105.570 60 995 bom main 1014 1014 P_____O_____P_ SH251993 -16.3850 105.555 45 0 -16.7000 105.600 30 60 995 4.00000 215 3 5 -16.3850 105.555 TC 45 6 168
1993096S11101 1993 25 SI WA MONTY 1993-04-11 00:00:00 TS -16.7667 105.667 60 992 bom main 1040 1013 O_____O_____O_ jtwc_sh SH251993 -16.7000 105.700 50 0 -16.9000 105.600 30 60 992 4.00000 215 3 5 -16.7000 105.700 TC 50 7 159
1993096S11101 1993 25 SI WA MONTY 1993-04-11 03:00:00 TS -17.0950 105.813 55 992 bom main 1013 976 P_____O_____P_ SH251993 -17.0925 105.920 50 0 -17.1000 105.600 30 55 992 4.00000 215 3 5 -17.0925 105.920 TC 50 7 149
1993096S11101 1993 25 SI WA MONTY 1993-04-11 06:00:00 TS -17.4000 106.067 55 995 bom main 968 923 O_____O_____O_ jtwc_sh SH251993 -17.5000 106.200 50 0 -17.2000 105.800 30 55 995 4.00000 215 3 5 -17.5000 106.200 TC 50 9 137
1993096S11101 1993 25 SI WA MONTY 1993-04-11 09:00:00 TS -17.7433 106.457 50 995 bom main 914 869 P_____O_____P_ SH251993 -17.8649 106.485 50 0 -17.5000 106.400 30 50 995 3.50000 215 3 5 -17.8649 106.485 TC 50 10 131
1993096S11101 1993 25 SI WA MONTY 1993-04-11 12:00:00 TS -18.0667 106.867 50 995 bom main 854 810 O_____O_____O_ jtwc_sh SH251993 -18.2000 106.800 50 0 -17.8000 107.000 30 50 995 3.50000 215 3 5 -18.2000 106.800 TC 50 10 132
1993096S11101 1993 25 SI WA MONTY 1993-04-11 15:00:00 TS -18.3867 107.200 40 995 bom main 810 766 P_____O_____P_ SH251993 -18.5300 107.150 47 0 -18.1000 107.300 30 40 995 3.00000 188 3 5 -18.5300 107.150 TC 47 9 135
1993096S11101 1993 25 SI WA MONTY 1993-04-11 18:00:00 TS -18.7000 107.533 40 995 bom main 766 727 O_____O_____O_ jtwc_sh SH251993 -18.8000 107.500 45 0 -18.5000 107.600 30 40 995 3.00000 188 3 5 -18.8000 107.500 TC 45 8 131
1993096S11101 1993 25 SI WA MONTY 1993-04-11 21:00:00 TS -18.9200 107.858 35 995 bom main 718 689 P_____O_____P_ SH251993 -18.9800 107.838 42 0 -18.8000 107.900 30 35 995 3.00000 161 3 5 -18.9800 107.838 TC 42 7 123
1993096S11101 1993 25 SI WA MONTY 1993-04-12 00:00:00 TS -19.0667 108.133 35 995 bom main 689 665 O_____O_____O_ jtwc_sh SH251993 -19.1000 108.100 40 0 -19.0000 108.200 30 35 995 3.00000 161 3 5 -19.1000 108.100 TC 40 5 130
1993096S11101 1993 25 SI WA MONTY 1993-04-12 03:00:00 TS -19.2383 108.258 35 995 bom main 665 646 P_____O_____P_ SH251993 -19.2074 108.238 35 0 -19.3000 108.300 30 35 995 3.00000 134 3 5 -19.2074 108.238 TC 35 4 140
1993096S11101 1993 25 SI WA MONTY 1993-04-12 06:00:00 TS -19.3667 108.400 35 995 bom main 646 646 O_____O_____O_ jtwc_sh SH251993 -19.3000 108.300 30 -1 -19.5000 108.600 30 35 995 3.00000 134 3 5 -19.3000 108.300 TC 30 2 136
1993096S11101 1993 25 SI WA MONTY 1993-04-12 09:00:00 TS -19.4100 108.430 30 997 bom main 646 646 P_____O_____P_ SH251993 -19.4150 108.395 30 -1 -19.4000 108.500 20 30 997 2.50000 134 3 5 -19.4150 108.395 TC 30 1 270
1993096S11101 1993 25 SI WA MONTY 1993-04-12 12:00:00 TS -19.3667 108.333 30 997 bom main 655 655 O_____O_____O_ jtwc_sh SH251993 -19.5000 108.400 30 -1 -19.1000 108.200 20 30 997 2.50000 107 3 5 -19.5000 108.400 TC 30 2 290
1993096S11101 1993 25 SI WA MONTY 1993-04-12 15:00:00 TS -19.3384 108.225 30 998 bom main 669 669 P_____O_____P_ SH251993 -19.5075 108.237 27 -1 -19.0000 108.200 20 30 998 2.50000 107 3 5 -19.5075 108.237 TC 27 3 276
1993096S11101 1993 25 SI WA MONTY 1993-04-12 18:00:00 TS -19.3333 108.000 30 998 bom main 688 688 O_____O_____O_ jtwc_sh SH251993 -19.5000 108.000 25 -1 -19.0000 108.000 20 30 998 2.50000 107 3 5 -19.5000 108.000 TC 25 4 267
1993096S11101 1993 25 SI WA MONTY 1993-04-12 21:00:00 TS -19.3567 107.795 30 999 bom main 700 700 P_____O_____P_ SH251993 -19.5350 107.793 25 -1 -19.0000 107.800 20 30 999 2.50000 80 3 5 -19.5350 107.793 TC 25 4 247
1993096S11101 1993 25 SI WA MONTY 1993-04-13 00:00:00 TS -19.4909 107.600 30 999 bom main 712 712 O_____O_____O_ jtwc_sh SH251993 -19.6000 107.600 25 -1 -19.2000 107.600 20 30 999 2.50000 80 3 5 -19.6000 107.600 TC 25 4 231
1993096S11101 1993 25 SI WA MONTY 1993-04-13 03:00:00 TS -19.6020 107.468 25 1000 bom main 715 715 P_____O_____P_ SH251993 -19.6775 107.435 25 -1 -19.3000 107.600 20 25 1000 2.00000 80 3 5 -19.6775 107.435 TC 25 4 225
1993096S11101 1993 25 SI WA MONTY 1993-04-13 06:00:00 TS -19.7444 107.333 25 1002 bom main 729 719 O_____O_____O_ jtwc_sh SH251993 -19.8000 107.300 25 -1 -19.3000 107.600 20 25 1002 1.50000 80 3 5 -19.8000 107.300 TC 25 5 215
1993096S11101 1993 25 SI WA MONTY 1993-04-13 09:00:00 TS -19.9850 107.185 main 723 719 P___________P_ SH251993 -19.9850 107.185 22 -1 -19.9850 107.185 TC 22 5 206
1993096S11101 1993 25 SI WA MONTY 1993-04-13 12:00:00 TS -20.2000 107.100 main 724 719 O___________O_ jtwc_sh SH251993 -20.2000 107.100 20 -1 -20.2000 107.100 TC 20 4 199
1993096S11101 1993 25 SI WA MONTY 1993-04-13 15:00:00 TS -20.4000 107.035 main 725 717 P___________P_ SH251993 -20.4000 107.035 20 -1 -20.4000 107.035 TC 20 4 193
1993096S11101 1993 25 SI WA MONTY 1993-04-13 18:00:00 TS -20.6000 107.000 main 717 710 O___________O_ jtwc_sh SH251993 -20.6000 107.000 20 -1 -20.6000 107.000 TC 20 4 185
1993096S11101 1993 25 SI WA MONTY 1993-04-13 21:00:00 TS -20.8000 106.992 main 710 704 P___________P_ SH251993 -20.8000 106.992 17 -1 -20.8000 106.992 TC 17 4 0
1993096S11101 1993 25 SI WA MONTY 1993-04-14 00:00:00 TS -21.0000 107.000 main 704 698 O___________O_ jtwc_sh SH251993 -21.0000 107.000 15 -1 -21.0000 107.000 TC 15 4 0
1993096S11101 1993 25 SI WA MONTY 1993-04-14 03:00:00 TS -21.2000 106.993 main 698 693 P___________P_ SH251993 -21.2000 106.993 15 -1 -21.2000 106.993 TC 15 4 0
1993096S11101 1993 25 SI WA MONTY 1993-04-14 06:00:00 TS -21.4000 107.000 main 693 688 O___________O_ jtwc_sh SH251993 -21.4000 107.000 15 -1 -21.4000 107.000 TC 15 4 173
1993096S11101 1993 25 SI WA MONTY 1993-04-14 09:00:00 TS -21.5850 107.035 main 688 674 P___________P_ SH251993 -21.5850 107.035 15 -1 -21.5850 107.035 TC 15 4 167
1993096S11101 1993 25 SI WA MONTY 1993-04-14 12:00:00 TS -21.8000 107.100 main 674 660 O___________O_ jtwc_sh SH251993 -21.8000 107.100 15 -1 -21.8000 107.100 TC 15 5 165
1993096S11101 1993 25 SI WA MONTY 1993-04-14 15:00:00 TS -22.0925 107.185 main 660 647 P___________P_ SH251993 -22.0925 107.185 15 -1 -22.0925 107.185 TC 15 6 163
1993096S11101 1993 25 SI WA MONTY 1993-04-14 18:00:00 TS -22.4000 107.300 main 647 636 O___________O_ jtwc_sh SH251993 -22.4000 107.300 15 -1 -22.4000 107.300 TC 15 6 158
1993096S11101 1993 25 SI WA MONTY 1993-04-14 21:00:00 TS -22.6650 107.442 main 636 612 P___________P_ SH251993 -22.6650 107.442 15 -1 -22.6650 107.442 TC 15 6 151
1993096S11101 1993 25 SI WA MONTY 1993-04-15 00:00:00 TS -22.9000 107.600 main 612 O___________O_ jtwc_sh SH251993 -22.9000 107.600 15 -1 -22.9000 107.600 TC 15 6 149

About IBTrACS Database

This database is a web-friendly format of International Best Track Archive for Climate Stewardship (IBTrACS), a global best track data archive curated by NOAA dating back to 1842.

Updated: 2021-10-08